createdAt,value
2018-11-03T00:01:20.534Z,8.30
2018-11-03T00:03:49.301Z,7.83
2018-11-03T00:06:17.995Z,7.57
2018-11-03T00:08:46.806Z,7.63
2018-11-03T00:11:15.723Z,7.53
2018-11-03T00:13:44.639Z,7.80
2018-11-03T00:16:13.350Z,7.57
2018-11-03T00:18:42.130Z,7.17
2018-11-03T00:21:11.035Z,7.07
2018-11-03T00:23:39.764Z,7.93
2018-11-03T00:26:08.428Z,8.23
2018-11-03T00:28:37.014Z,7.47
2018-11-03T00:31:05.824Z,7.43
2018-11-03T00:33:34.583Z,7.63
2018-11-03T00:36:03.233Z,8.03
2018-11-03T00:38:31.845Z,7.87
2018-11-03T00:41:00.622Z,7.53
2018-11-03T00:43:29.523Z,7.00
2018-11-03T00:45:58.262Z,7.97
2018-11-03T00:48:27.042Z,7.40
2018-11-03T00:50:55.938Z,7.47
2018-11-03T00:53:24.676Z,8.83
2018-11-03T00:55:53.306Z,8.90
2018-11-03T00:58:21.938Z,8.30
2018-11-03T01:00:50.725Z,7.43
2018-11-03T01:03:19.390Z,7.73
2018-11-03T01:05:47.943Z,7.90
2018-11-03T01:08:16.728Z,7.83
2018-11-03T01:10:45.652Z,7.63
2018-11-03T01:13:14.546Z,7.80
2018-11-03T01:15:43.215Z,8.03
2018-11-03T01:18:11.831Z,7.93
2018-11-03T01:20:40.437Z,8.53
2018-11-03T01:23:08.994Z,8.13
2018-11-03T01:25:37.597Z,8.20
2018-11-03T01:28:06.229Z,8.03
2018-11-03T01:30:35.070Z,7.40
2018-11-03T01:33:04.015Z,7.53
2018-11-03T01:35:32.562Z,7.67
2018-11-03T01:38:01.158Z,7.80
2018-11-03T01:40:29.942Z,7.97
2018-11-03T01:42:58.625Z,8.23
2018-11-03T01:45:27.435Z,7.50
2018-11-03T01:47:56.332Z,7.20
2018-11-03T01:50:25.059Z,7.90
2018-11-03T01:52:53.666Z,7.93
2018-11-03T01:55:22.548Z,8.00
2018-11-03T01:57:51.478Z,7.57
2018-11-03T02:00:20.438Z,8.20
2018-11-03T02:02:49.172Z,8.37
2018-11-03T02:05:17.949Z,8.97
2018-11-03T02:07:46.838Z,7.97
2018-11-03T02:10:15.924Z,8.23
2018-11-03T02:12:44.824Z,9.43
2018-11-03T02:15:13.518Z,8.33
2018-11-03T02:17:42.269Z,9.13
2018-11-03T02:20:11.970Z,8.73
2018-11-03T02:22:41.022Z,8.90
2018-11-03T02:25:10.237Z,9.17
2018-11-03T02:27:38.877Z,10.00
2018-11-03T02:30:08.343Z,9.70
2018-11-03T02:32:37.065Z,9.20
2018-11-03T02:35:06.135Z,8.80
2018-11-03T02:37:35.025Z,7.93
2018-11-03T02:40:03.940Z,8.57
2018-11-03T02:42:33.908Z,8.17
2018-11-03T02:45:02.778Z,9.00
2018-11-03T02:47:31.683Z,8.37
2018-11-03T02:50:00.574Z,8.77
2018-11-03T02:52:29.481Z,8.97
2018-11-03T02:54:58.639Z,9.10
2018-11-03T02:57:27.423Z,9.70
2018-11-03T02:59:56.074Z,9.63
2018-11-03T03:02:24.661Z,9.27
2018-11-03T03:04:53.546Z,8.97
2018-11-03T03:07:22.478Z,8.87
2018-11-03T03:09:51.390Z,8.87
2018-11-03T03:12:20.446Z,8.43
2018-11-03T03:14:49.113Z,8.77
2018-11-03T03:17:17.931Z,10.30
2018-11-03T03:19:46.681Z,9.63
2018-11-03T03:22:15.378Z,9.67
2018-11-03T03:24:43.949Z,9.10
2018-11-03T03:27:12.599Z,9.47
2018-11-03T03:29:41.437Z,9.33
2018-11-03T03:32:10.125Z,9.80
2018-11-03T03:34:38.635Z,10.13
2018-11-03T03:37:07.426Z,9.80
2018-11-03T03:39:36.931Z,10.70
2018-11-03T03:42:05.831Z,9.63
2018-11-03T03:44:34.727Z,10.20
2018-11-03T03:47:03.525Z,9.50
2018-11-03T03:49:32.306Z,9.27
2018-11-03T03:52:00.998Z,11.67
2018-11-03T03:54:29.608Z,13.90
2018-11-03T03:56:58.254Z,11.10
2018-11-03T03:59:27.056Z,10.00
2018-11-03T04:01:55.945Z,9.30
2018-11-03T04:04:24.721Z,9.17
2018-11-03T04:06:53.510Z,9.13
2018-11-03T04:09:22.194Z,10.10
2018-11-03T04:11:50.983Z,9.57
2018-11-03T04:14:20.042Z,9.83
2018-11-03T04:16:48.711Z,10.00
2018-11-03T04:19:17.494Z,10.00
2018-11-03T04:21:46.197Z,10.13
2018-11-03T04:24:14.983Z,9.10
2018-11-03T04:26:43.793Z,9.33
2018-11-03T04:29:12.566Z,9.50
2018-11-03T04:31:41.463Z,8.80
2018-11-03T04:34:10.195Z,8.93
2018-11-03T04:36:38.824Z,8.97
2018-11-03T04:39:07.819Z,8.27
2018-11-03T04:41:36.713Z,9.20
2018-11-03T04:44:05.627Z,9.00
2018-11-03T04:46:34.531Z,10.10
2018-11-03T04:49:04.051Z,10.70
2018-11-03T04:51:34.189Z,9.27
2018-11-03T04:54:02.975Z,9.40
2018-11-03T04:56:31.882Z,9.53
2018-11-03T04:59:00.782Z,10.03
2018-11-03T05:01:29.810Z,10.03
2018-11-03T05:03:58.559Z,10.17
2018-11-03T05:06:27.338Z,9.73
2018-11-03T05:08:56.032Z,10.27
2018-11-03T05:11:24.662Z,9.83
2018-11-03T05:13:53.460Z,10.07
2018-11-03T05:16:22.126Z,9.70
2018-11-03T05:18:50.896Z,9.27
2018-11-03T05:21:19.859Z,10.13
2018-11-03T05:23:48.834Z,10.63
2018-11-03T05:26:17.709Z,9.70
2018-11-03T05:28:46.393Z,9.83
2018-11-03T05:31:15.333Z,11.00
2018-11-03T05:33:44.002Z,10.30
2018-11-03T05:36:12.787Z,10.33
2018-11-03T05:38:41.525Z,10.47
2018-11-03T05:41:10.096Z,9.77
2018-11-03T05:43:38.867Z,10.40
2018-11-03T05:46:07.769Z,10.33
2018-11-03T05:48:36.743Z,10.40
2018-11-03T05:51:05.662Z,10.27
2018-11-03T05:53:34.449Z,10.40
2018-11-03T05:56:03.187Z,10.50
2018-11-03T05:58:32.088Z,9.37
2018-11-03T06:01:00.780Z,10.63
2018-11-03T06:03:29.334Z,10.20
2018-11-03T06:05:57.967Z,23.40
2018-11-03T06:08:26.760Z,15.10
2018-11-03T06:10:55.646Z,10.90
2018-11-03T06:13:24.385Z,11.33
2018-11-03T06:15:53.171Z,11.53
2018-11-03T06:18:21.962Z,10.87
2018-11-03T06:20:50.762Z,10.83
2018-11-03T06:23:19.576Z,10.10
2018-11-03T06:25:48.162Z,10.10
2018-11-03T06:28:16.972Z,11.13
2018-11-03T06:30:45.894Z,11.13
2018-11-03T06:33:14.579Z,11.80
2018-11-03T06:35:43.217Z,12.63
2018-11-03T06:38:12.010Z,10.53
2018-11-03T06:40:41.063Z,11.10
2018-11-03T06:43:09.974Z,14.57
2018-11-03T06:45:38.945Z,11.53
2018-11-03T06:48:07.851Z,11.00
2018-11-03T06:50:36.776Z,11.30
2018-11-03T06:53:05.435Z,14.13
2018-11-03T06:55:34.035Z,11.63
2018-11-03T06:58:02.982Z,12.90
2018-11-03T07:00:31.532Z,11.83
2018-11-03T07:03:00.303Z,10.80
2018-11-03T07:05:29.206Z,12.00
2018-11-03T07:07:57.885Z,12.13
2018-11-03T07:10:27.627Z,11.73
2018-11-03T07:12:56.623Z,13.03
2018-11-03T07:15:25.260Z,13.43
2018-11-03T07:17:53.879Z,12.87
2018-11-03T07:20:22.670Z,12.93
2018-11-03T07:22:51.333Z,12.37
2018-11-03T07:25:20.119Z,12.37
2018-11-03T07:27:49.007Z,13.63
2018-11-03T07:30:17.922Z,13.20
2018-11-03T07:32:46.603Z,14.40
2018-11-03T07:35:15.210Z,13.67
2018-11-03T07:37:44.034Z,14.03
2018-11-03T07:40:12.939Z,13.80
2018-11-03T07:42:42.607Z,13.83
2018-11-03T07:45:11.129Z,14.77
2018-11-03T07:47:40.465Z,17.90
2018-11-03T07:50:11.219Z,14.87
2018-11-03T07:52:40.254Z,13.60
2018-11-03T07:55:10.634Z,13.93
2018-11-03T07:57:39.602Z,14.10
2018-11-03T08:00:09.189Z,14.40
2018-11-03T08:02:38.059Z,14.47
2018-11-03T08:05:07.186Z,14.37
2018-11-03T08:07:35.980Z,14.50
2018-11-03T08:10:04.941Z,14.60
2018-11-03T08:12:33.727Z,14.33
2018-11-03T08:15:02.811Z,15.67
2018-11-03T08:17:31.743Z,14.07
2018-11-03T08:20:00.658Z,15.30
2018-11-03T08:22:29.321Z,14.07
2018-11-03T08:24:58.120Z,14.77
2018-11-03T08:27:27.018Z,15.00
2018-11-03T08:29:55.928Z,16.17
2018-11-03T08:32:24.807Z,15.13
2018-11-03T08:34:53.583Z,16.00
2018-11-03T08:37:22.262Z,15.50
2018-11-03T08:39:51.103Z,16.40
2018-11-03T08:42:19.752Z,16.27
2018-11-03T08:44:48.550Z,16.03
2018-11-03T08:47:17.470Z,16.83
2018-11-03T08:49:46.279Z,16.27
2018-11-03T08:52:14.874Z,16.23
2018-11-03T08:54:43.658Z,16.47
2018-11-03T08:57:12.345Z,16.80
2018-11-03T08:59:41.265Z,17.23
2018-11-03T09:02:09.810Z,16.83
2018-11-03T09:04:38.586Z,16.93
2018-11-03T09:07:07.353Z,16.80
2018-11-03T09:09:36.087Z,16.63
2018-11-03T09:12:04.871Z,16.87
2018-11-03T09:14:33.736Z,17.73
2018-11-03T09:17:02.555Z,17.00
2018-11-03T09:19:31.250Z,17.73
2018-11-03T09:21:59.806Z,17.43
2018-11-03T09:24:28.364Z,17.97
2018-11-03T09:26:57.222Z,18.50
2018-11-03T09:29:26.120Z,17.60
2018-11-03T09:31:54.907Z,17.83
2018-11-03T09:34:23.723Z,18.43
2018-11-03T09:36:52.474Z,18.30
2018-11-03T09:39:21.265Z,18.10
2018-11-03T09:41:49.890Z,18.37
2018-11-03T09:44:18.682Z,17.50
2018-11-03T09:46:47.588Z,18.17
2018-11-03T09:49:16.264Z,18.67
2018-11-03T09:51:44.830Z,18.30
2018-11-03T09:54:13.380Z,18.70
2018-11-03T09:56:42.237Z,19.30
2018-11-03T09:59:11.437Z,19.87
2018-11-03T10:01:40.001Z,19.30
2018-11-03T10:04:08.789Z,20.13
2018-11-03T10:06:37.468Z,19.40
2018-11-03T10:09:06.811Z,20.20
2018-11-03T10:11:35.620Z,19.40
2018-11-03T10:14:04.150Z,19.00
2018-11-03T10:16:32.952Z,20.73
2018-11-03T10:19:01.894Z,19.87
2018-11-03T10:21:30.829Z,19.70
2018-11-03T10:23:59.775Z,19.13
2018-11-03T10:26:28.470Z,17.90
2018-11-03T10:28:57.298Z,18.47
2018-11-03T10:31:26.204Z,18.67
2018-11-03T10:33:54.890Z,17.87
2018-11-03T10:36:23.683Z,16.87
2018-11-03T10:38:52.574Z,17.10
2018-11-03T10:41:21.359Z,16.23
2018-11-03T10:43:50.123Z,17.80
2018-11-03T10:46:18.940Z,17.03
2018-11-03T10:48:47.914Z,17.87
2018-11-03T10:51:16.822Z,16.23
2018-11-03T10:53:45.778Z,17.07
2018-11-03T10:56:14.403Z,16.67
2018-11-03T10:58:43.220Z,15.37
2018-11-03T11:01:17.735Z,16.07
2018-11-03T11:03:52.025Z,15.73
2018-11-03T11:06:26.039Z,16.13
2018-11-03T11:09:00.329Z,16.00
2018-11-03T11:11:34.799Z,14.23
2018-11-03T11:14:03.765Z,14.37
2018-11-03T11:16:32.732Z,14.80
2018-11-03T11:19:01.408Z,13.67
2018-11-03T11:21:29.962Z,15.10
2018-11-03T11:23:58.620Z,14.60
2018-11-03T11:26:27.507Z,13.00
2018-11-03T11:28:56.185Z,13.70
2018-11-03T11:31:24.801Z,14.90
2018-11-03T11:33:53.535Z,13.93
2018-11-03T11:36:22.235Z,12.97
2018-11-03T11:38:51.010Z,13.63
2018-11-03T11:41:19.698Z,13.77
2018-11-03T11:43:48.479Z,13.63
2018-11-03T11:46:17.394Z,11.23
2018-11-03T11:48:46.105Z,11.47
2018-11-03T11:51:14.883Z,12.20
2018-11-03T11:53:43.550Z,11.30
2018-11-03T11:56:12.150Z,12.80
2018-11-03T11:58:40.727Z,12.53
2018-11-03T12:01:09.281Z,11.80
2018-11-03T12:03:38.119Z,11.57
2018-11-03T12:06:07.079Z,10.57
2018-11-03T12:08:35.978Z,8.57
2018-11-03T12:11:04.971Z,8.60
2018-11-03T12:13:33.897Z,7.77
2018-11-03T12:16:02.665Z,7.70
2018-11-03T12:18:31.147Z,8.67
2018-11-03T12:20:59.918Z,8.80
2018-11-03T12:23:28.609Z,9.37
2018-11-03T12:25:57.363Z,8.30
2018-11-03T12:28:26.290Z,7.53
2018-11-03T12:30:55.185Z,7.20
2018-11-03T12:33:24.112Z,7.20
2018-11-03T12:35:52.793Z,8.87
2018-11-03T12:38:21.555Z,7.03
2018-11-03T12:40:50.257Z,8.03
2018-11-03T12:43:19.015Z,8.50
2018-11-03T12:45:47.932Z,7.50
2018-11-03T12:48:16.928Z,8.10
2018-11-03T12:50:45.755Z,8.37
2018-11-03T12:53:14.677Z,8.20
2018-11-03T12:55:43.354Z,9.10
2018-11-03T12:58:11.926Z,9.00
2018-11-03T13:00:40.502Z,9.87
2018-11-03T13:03:09.107Z,8.77
2018-11-03T13:05:37.976Z,8.57
2018-11-03T13:08:06.780Z,8.10
2018-11-03T13:10:35.445Z,7.80
2018-11-03T13:13:03.985Z,8.43
2018-11-03T13:15:32.800Z,8.80
2018-11-03T13:18:01.687Z,8.73
2018-11-03T13:20:30.358Z,8.63
2018-11-03T13:22:59.158Z,8.63
2018-11-03T13:25:28.034Z,8.40
2018-11-03T13:27:56.928Z,7.47
2018-11-03T13:30:25.594Z,7.13
2018-11-03T13:32:54.403Z,7.70
2018-11-03T13:35:23.054Z,7.50
2018-11-03T13:37:51.888Z,7.47
2018-11-03T13:40:20.567Z,8.10
2018-11-03T13:42:49.357Z,8.60
2018-11-03T13:45:18.268Z,7.63
2018-11-03T13:47:47.192Z,7.17
2018-11-03T13:50:16.961Z,7.60
2018-11-03T13:52:47.043Z,8.07
2018-11-03T13:55:15.982Z,8.13
2018-11-03T13:57:45.767Z,7.73
2018-11-03T14:00:16.606Z,9.40
2018-11-03T14:02:46.199Z,8.07
2018-11-03T14:05:15.220Z,8.13
2018-11-03T14:07:44.183Z,8.17
2018-11-03T14:10:14.504Z,8.93
2018-11-03T14:12:43.842Z,8.40
2018-11-03T14:15:13.800Z,9.40
2018-11-03T14:17:42.734Z,8.70
2018-11-03T14:20:12.768Z,9.27
2018-11-03T14:22:42.301Z,8.53
2018-11-03T14:25:12.750Z,8.73
2018-11-03T14:27:42.815Z,9.03
2018-11-03T14:30:12.372Z,9.53
2018-11-03T14:32:41.261Z,9.87
2018-11-03T14:35:11.008Z,10.13
2018-11-03T14:37:40.356Z,9.40
2018-11-03T14:40:12.394Z,10.00
2018-11-03T14:42:42.021Z,9.57
2018-11-03T14:45:11.496Z,9.60
2018-11-03T14:47:40.026Z,9.13
2018-11-03T14:50:09.147Z,9.23
2018-11-03T14:52:39.241Z,9.10
2018-11-03T14:55:09.034Z,10.33
2018-11-03T14:57:37.824Z,9.97
2018-11-03T15:00:09.615Z,10.47
2018-11-03T15:02:38.446Z,10.63
2018-11-03T15:05:07.665Z,10.70
2018-11-03T15:07:36.663Z,11.10
2018-11-03T15:10:06.707Z,10.80
2018-11-03T15:12:35.397Z,9.63
2018-11-03T15:15:03.975Z,9.97
2018-11-03T15:17:32.749Z,9.77
2018-11-03T15:20:01.407Z,9.93
2018-11-03T15:22:30.268Z,9.33
2018-11-03T15:24:59.140Z,10.23
2018-11-03T15:27:28.003Z,10.40
2018-11-03T15:29:56.911Z,9.67
2018-11-03T15:32:25.604Z,9.50
2018-11-03T15:34:54.412Z,9.83
2018-11-03T15:37:23.398Z,9.40
2018-11-03T15:39:52.302Z,11.07
2018-11-03T15:42:21.051Z,10.10
2018-11-03T15:44:49.637Z,9.83
2018-11-03T15:47:18.434Z,9.67
2018-11-03T15:49:47.106Z,9.90
2018-11-03T15:52:15.659Z,9.77
2018-11-03T15:54:44.237Z,9.43
2018-11-03T15:57:13.042Z,9.17
2018-11-03T15:59:41.918Z,9.90
2018-11-03T16:02:10.616Z,10.00
2018-11-03T16:04:39.383Z,10.90
2018-11-03T16:07:08.282Z,10.93
2018-11-03T16:09:37.191Z,10.07
2018-11-03T16:12:06.160Z,10.40
2018-11-03T16:14:34.613Z,9.80
2018-11-03T16:17:03.390Z,10.80
2018-11-03T16:19:32.366Z,10.07
2018-11-03T16:22:00.971Z,9.73
2018-11-03T16:24:29.795Z,9.43
2018-11-03T16:26:58.467Z,10.10
2018-11-03T16:29:27.389Z,10.40
2018-11-03T16:31:56.073Z,9.40
2018-11-03T16:34:24.853Z,8.80
2018-11-03T16:36:53.984Z,10.00
2018-11-03T16:39:22.662Z,9.30
2018-11-03T16:41:51.452Z,9.57
2018-11-03T16:44:20.380Z,9.20
2018-11-03T16:46:49.146Z,9.07
2018-11-03T16:49:19.547Z,9.20
2018-11-03T16:51:48.451Z,10.37
2018-11-03T16:54:17.366Z,9.60
2018-11-03T16:56:46.565Z,10.70
2018-11-03T16:59:15.321Z,10.67
2018-11-03T17:01:44.061Z,10.33
2018-11-03T17:04:13.008Z,9.63
2018-11-03T17:06:41.932Z,10.10
2018-11-03T17:09:10.652Z,11.47
2018-11-03T17:11:39.380Z,10.33
2018-11-03T17:14:08.411Z,10.83
2018-11-03T17:16:37.316Z,11.03
2018-11-03T17:19:05.999Z,11.70
2018-11-03T17:21:34.610Z,12.30
2018-11-03T17:24:03.402Z,11.50
2018-11-03T17:26:32.179Z,11.70
2018-11-03T17:29:00.981Z,11.20
2018-11-03T17:31:29.895Z,11.83
2018-11-03T17:33:58.614Z,10.80
2018-11-03T17:36:27.208Z,10.40
2018-11-03T17:38:55.760Z,10.27
2018-11-03T17:41:24.301Z,10.13
2018-11-03T17:43:52.952Z,9.73
2018-11-03T17:46:21.682Z,9.53
2018-11-03T17:48:50.598Z,9.47
2018-11-03T17:51:19.275Z,9.20
2018-11-03T17:53:47.846Z,9.13
2018-11-03T17:56:16.398Z,9.33
2018-11-03T17:58:45.189Z,9.40
2018-11-03T18:01:14.168Z,9.30
2018-11-03T18:03:43.123Z,9.27
2018-11-03T18:06:11.950Z,9.40
2018-11-03T18:08:40.614Z,9.60
2018-11-03T18:11:09.378Z,8.97
2018-11-03T18:13:38.287Z,9.63
2018-11-03T18:16:07.363Z,9.13
2018-11-03T18:18:36.100Z,9.27
2018-11-03T18:21:04.691Z,9.93
2018-11-03T18:23:33.486Z,9.93
2018-11-03T18:26:02.279Z,10.07
2018-11-03T18:28:30.988Z,10.03
2018-11-03T18:30:59.911Z,10.13
2018-11-03T18:33:28.619Z,10.17
2018-11-03T18:35:57.336Z,9.50
2018-11-03T18:38:25.998Z,9.63
2018-11-03T18:40:54.781Z,10.47
2018-11-03T18:43:23.670Z,9.63
2018-11-03T18:45:52.578Z,9.57
2018-11-03T18:48:21.241Z,9.60
2018-11-03T18:50:49.789Z,10.27
2018-11-03T18:53:18.572Z,10.03
2018-11-03T18:55:47.470Z,9.70
2018-11-03T18:58:16.175Z,11.23
2018-11-03T19:00:44.810Z,9.83
2018-11-03T19:03:13.447Z,10.10
2018-11-03T19:05:42.222Z,10.47
2018-11-03T19:08:11.119Z,10.77
2018-11-03T19:10:40.058Z,10.43
2018-11-03T19:13:08.824Z,10.50
2018-11-03T19:15:37.578Z,10.60
2018-11-03T19:18:06.260Z,10.30
2018-11-03T19:20:34.908Z,11.17
2018-11-03T19:23:03.694Z,10.90
2018-11-03T19:25:32.369Z,10.60
2018-11-03T19:28:00.909Z,10.47
2018-11-03T19:30:29.463Z,10.73
2018-11-03T19:32:58.026Z,10.33
2018-11-03T19:35:26.669Z,10.00
2018-11-03T19:37:55.225Z,10.80
2018-11-03T19:40:24.031Z,10.23
2018-11-03T19:42:52.701Z,9.87
2018-11-03T19:45:21.271Z,9.93
2018-11-03T19:47:49.825Z,9.47
2018-11-03T19:50:18.613Z,10.80
2018-11-03T19:52:47.289Z,10.60
2018-11-03T19:55:16.119Z,10.70
2018-11-03T19:57:45.035Z,10.53
2018-11-03T20:00:14.888Z,11.60
2018-11-03T20:02:43.882Z,10.57
2018-11-03T20:05:12.726Z,11.33
2018-11-03T20:07:42.539Z,10.97
2018-11-03T20:10:11.642Z,11.03
2018-11-03T20:12:40.490Z,10.07
2018-11-03T20:15:10.494Z,10.40
2018-11-03T20:17:39.545Z,10.90
2018-11-03T20:20:09.839Z,11.40
2018-11-03T20:22:38.561Z,10.80
2018-11-03T20:25:07.953Z,10.57
2018-11-03T20:27:36.571Z,10.70
2018-11-03T20:30:07.756Z,11.33
2018-11-03T20:32:36.514Z,11.20
2018-11-03T20:35:05.717Z,11.40
2018-11-03T20:37:34.684Z,11.20
2018-11-03T20:40:03.518Z,11.90
2018-11-03T20:42:32.296Z,11.90
2018-11-03T20:45:01.253Z,11.10
2018-11-03T20:47:30.171Z,11.83
2018-11-03T20:49:58.887Z,11.97
2018-11-03T20:52:27.644Z,10.37
2018-11-03T20:54:56.313Z,10.87
2018-11-03T20:57:25.092Z,11.00
2018-11-03T20:59:53.766Z,11.03
2018-11-03T21:02:22.317Z,11.27
2018-11-03T21:04:51.701Z,10.67
2018-11-03T21:07:20.481Z,10.73
2018-11-03T21:09:49.398Z,11.03
2018-11-03T21:12:18.078Z,10.77
2018-11-03T21:14:46.641Z,10.80
2018-11-03T21:17:15.431Z,10.87
2018-11-03T21:19:44.347Z,10.40
2018-11-03T21:22:13.533Z,10.70
2018-11-03T21:24:42.210Z,10.13
2018-11-03T21:27:11.446Z,10.23
2018-11-03T21:29:40.312Z,9.57
2018-11-03T21:32:09.510Z,10.03
2018-11-03T21:34:38.236Z,10.03
2018-11-03T21:37:06.770Z,10.17
2018-11-03T21:39:35.562Z,10.20
2018-11-03T21:42:05.589Z,9.43
2018-11-03T21:44:34.370Z,9.70
2018-11-03T21:47:03.348Z,10.40
2018-11-03T21:49:31.946Z,10.20
2018-11-03T21:52:00.534Z,9.30
2018-11-03T21:54:29.093Z,9.23
2018-11-03T21:56:57.891Z,9.47
2018-11-03T21:59:26.558Z,9.97
2018-11-03T22:01:55.372Z,9.17
2018-11-03T22:04:24.066Z,9.40
2018-11-03T22:06:52.606Z,9.33
2018-11-03T22:09:21.154Z,9.67
2018-11-03T22:11:49.722Z,9.60
2018-11-03T22:14:18.511Z,9.30
2018-11-03T22:16:47.464Z,9.20
2018-11-03T22:19:16.135Z,9.63
2018-11-03T22:21:44.983Z,9.47
2018-11-03T22:24:13.582Z,10.27
2018-11-03T22:26:42.177Z,10.40
2018-11-03T22:29:10.776Z,9.97
2018-11-03T22:31:39.506Z,9.40
2018-11-03T22:34:08.497Z,11.47
2018-11-03T22:36:37.075Z,9.90
2018-11-03T22:39:07.498Z,10.70
2018-11-03T22:41:36.438Z,11.47
2018-11-03T22:44:05.381Z,11.10
2018-11-03T22:46:34.469Z,11.17
2018-11-03T22:49:03.456Z,11.13
2018-11-03T22:51:32.481Z,11.50
2018-11-03T22:54:01.355Z,10.93
2018-11-03T22:56:30.026Z,11.63
2018-11-03T22:58:58.796Z,11.17
2018-11-03T23:01:27.599Z,11.63
2018-11-03T23:03:56.514Z,11.47
2018-11-03T23:06:25.195Z,12.50
2018-11-03T23:08:54.004Z,11.93
2018-11-03T23:11:22.690Z,11.07
2018-11-03T23:13:51.347Z,12.23
2018-11-03T23:16:19.874Z,12.27
2018-11-03T23:18:48.619Z,10.70
2018-11-03T23:21:17.520Z,11.53
2018-11-03T23:23:46.234Z,11.00
2018-11-03T23:26:15.027Z,11.20
2018-11-03T23:28:43.698Z,11.77
2018-11-03T23:31:12.483Z,12.27
2018-11-03T23:33:41.426Z,10.97
2018-11-03T23:36:10.351Z,11.93
2018-11-03T23:38:39.307Z,11.27
2018-11-03T23:41:07.947Z,11.43
2018-11-03T23:43:36.723Z,11.23
2018-11-03T23:46:05.909Z,11.97
2018-11-03T23:48:34.820Z,12.03
2018-11-03T23:51:03.743Z,11.80
2018-11-03T23:53:32.422Z,11.87
2018-11-03T23:56:01.197Z,11.63
2018-11-03T23:58:29.880Z,12.17
